sensor_id;sensor_type;location;lat;lon;timestamp;P1;durP1;ratioP1;P2;durP2;ratioP2
9559;SDS011;4818;50.860;4.648;2023-02-01T00:01:49;35.53;;;7.63;;
9559;SDS011;4818;50.860;4.648;2023-02-01T00:04:15;16.52;;;6.05;;
9559;SDS011;4818;50.860;4.648;2023-02-01T00:06:41;19.42;;;6.47;;
9559;SDS011;4818;50.860;4.648;2023-02-01T00:09:07;19.80;;;5.82;;
9559;SDS011;4818;50.860;4.648;2023-02-01T00:11:34;16.23;;;5.80;;
9559;SDS011;4818;50.860;4.648;2023-02-01T00:14:02;19.38;;;6.13;;
9559;SDS011;4818;50.860;4.648;2023-02-01T00:16:31;21.05;;;5.10;;
9559;SDS011;4818;50.860;4.648;2023-02-01T00:19:01;15.65;;;4.70;;
9559;SDS011;4818;50.860;4.648;2023-02-01T00:21:28;14.52;;;4.00;;
9559;SDS011;4818;50.860;4.648;2023-02-01T00:23:57;18.55;;;4.30;;
9559;SDS011;4818;50.860;4.648;2023-02-01T00:28:53;15.32;;;3.97;;
9559;SDS011;4818;50.860;4.648;2023-02-01T00:31:19;25.13;;;5.00;;
9559;SDS011;4818;50.860;4.648;2023-02-01T00:33:49;20.10;;;4.88;;
9559;SDS011;4818;50.860;4.648;2023-02-01T00:36:15;13.57;;;5.35;;
9559;SDS011;4818;50.860;4.648;2023-02-01T00:38:42;17.63;;;5.22;;
9559;SDS011;4818;50.860;4.648;2023-02-01T00:41:12;16.45;;;5.90;;
9559;SDS011;4818;50.860;4.648;2023-02-01T00:43:39;19.50;;;5.10;;
9559;SDS011;4818;50.860;4.648;2023-02-01T00:46:05;20.73;;;5.95;;
9559;SDS011;4818;50.860;4.648;2023-02-01T00:48:31;22.75;;;6.10;;
9559;SDS011;4818;50.860;4.648;2023-02-01T00:51:01;22.20;;;6.72;;
9559;SDS011;4818;50.860;4.648;2023-02-01T00:53:28;21.73;;;7.05;;
9559;SDS011;4818;50.860;4.648;2023-02-01T00:55:54;17.35;;;6.63;;
9559;SDS011;4818;50.860;4.648;2023-02-01T00:58:21;29.77;;;7.18;;
9559;SDS011;4818;50.860;4.648;2023-02-01T01:00:59;26.98;;;6.95;;
9559;SDS011;4818;50.860;4.648;2023-02-01T01:03:27;23.27;;;5.45;;
9559;SDS011;4818;50.860;4.648;2023-02-01T01:05:56;24.20;;;6.43;;
9559;SDS011;4818;50.860;4.648;2023-02-01T01:08:22;18.25;;;6.63;;
9559;SDS011;4818;50.860;4.648;2023-02-01T01:10:49;17.23;;;6.10;;
9559;SDS011;4818;50.860;4.648;2023-02-01T01:13:15;18.15;;;5.72;;
9559;SDS011;4818;50.860;4.648;2023-02-01T01:15:41;21.45;;;6.40;;
9559;SDS011;4818;50.860;4.648;2023-02-01T01:18:08;16.08;;;5.35;;
9559;SDS011;4818;50.860;4.648;2023-02-01T01:20:35;18.17;;;5.68;;
9559;SDS011;4818;50.860;4.648;2023-02-01T01:23:01;20.85;;;5.40;;
9559;SDS011;4818;50.860;4.648;2023-02-01T01:25:28;25.08;;;5.43;;
9559;SDS011;4818;50.860;4.648;2023-02-01T01:27:54;20.75;;;5.28;;
9559;SDS011;4818;50.860;4.648;2023-02-01T01:30:20;18.08;;;4.78;;
9559;SDS011;4818;50.860;4.648;2023-02-01T01:32:47;22.13;;;4.53;;
9559;SDS011;4818;50.860;4.648;2023-02-01T01:35:13;16.35;;;4.30;;
9559;SDS011;4818;50.860;4.648;2023-02-01T01:37:39;17.73;;;5.03;;
9559;SDS011;4818;50.860;4.648;2023-02-01T01:40:06;10.40;;;3.42;;
9559;SDS011;4818;50.860;4.648;2023-02-01T01:42:42;12.38;;;3.97;;
9559;SDS011;4818;50.860;4.648;2023-02-01T01:47:39;14.88;;;4.22;;
9559;SDS011;4818;50.860;4.648;2023-02-01T01:50:08;17.10;;;4.35;;
9559;SDS011;4818;50.860;4.648;2023-02-01T01:52:36;19.90;;;4.30;;
9559;SDS011;4818;50.860;4.648;2023-02-01T01:55:03;18.67;;;4.95;;
9559;SDS011;4818;50.860;4.648;2023-02-01T01:57:31;15.88;;;5.13;;
9559;SDS011;4818;50.860;4.648;2023-02-01T02:02:32;16.90;;;3.30;;
9559;SDS011;4818;50.860;4.648;2023-02-01T02:04:58;19.02;;;3.10;;
9559;SDS011;4818;50.860;4.648;2023-02-01T02:07:25;17.13;;;2.67;;
9559;SDS011;4818;50.860;4.648;2023-02-01T02:09:52;14.15;;;2.88;;
9559;SDS011;4818;50.860;4.648;2023-02-01T02:12:18;16.90;;;3.10;;
9559;SDS011;4818;50.860;4.648;2023-02-01T02:14:45;7.72;;;1.80;;
9559;SDS011;4818;50.860;4.648;2023-02-01T02:32:47;16.40;;;2.50;;
9559;SDS011;4818;50.860;4.648;2023-02-01T02:38:15;20.63;;;3.08;;
9559;SDS011;4818;50.860;4.648;2023-02-01T02:40:51;17.80;;;2.47;;
9559;SDS011;4818;50.860;4.648;2023-02-01T02:43:28;10.77;;;2.00;;
9559;SDS011;4818;50.860;4.648;2023-02-01T02:52:53;12.43;;;1.55;;
9559;SDS011;4818;50.860;4.648;2023-02-01T02:55:38;17.95;;;1.90;;
9559;SDS011;4818;50.860;4.648;2023-02-01T02:58:05;15.02;;;1.30;;
9559;SDS011;4818;50.860;4.648;2023-02-01T03:00:52;15.02;;;1.60;;
9559;SDS011;4818;50.860;4.648;2023-02-01T03:03:38;15.60;;;1.50;;
9559;SDS011;4818;50.860;4.648;2023-02-01T03:06:23;22.80;;;1.77;;
9559;SDS011;4818;50.860;4.648;2023-02-01T03:08:51;19.58;;;1.63;;
9559;SDS011;4818;50.860;4.648;2023-02-01T03:11:22;15.60;;;1.77;;
9559;SDS011;4818;50.860;4.648;2023-02-01T03:14:09;9.88;;;1.08;;
9559;SDS011;4818;50.860;4.648;2023-02-01T03:16:40;7.63;;;1.35;;
9559;SDS011;4818;50.860;4.648;2023-02-01T03:24:27;14.07;;;2.13;;
9559;SDS011;4818;50.860;4.648;2023-02-01T03:27:02;21.92;;;2.03;;
9559;SDS011;4818;50.860;4.648;2023-02-01T03:29:33;10.95;;;1.70;;
9559;SDS011;4818;50.860;4.648;2023-02-01T03:32:01;16.70;;;2.03;;
9559;SDS011;4818;50.860;4.648;2023-02-01T03:34:28;16.10;;;2.10;;
9559;SDS011;4818;50.860;4.648;2023-02-01T03:36:58;16.42;;;1.70;;
9559;SDS011;4818;50.860;4.648;2023-02-01T03:41:58;22.60;;;2.05;;
9559;SDS011;4818;50.860;4.648;2023-02-01T03:46:58;17.48;;;2.40;;
9559;SDS011;4818;50.860;4.648;2023-02-01T03:49:27;18.85;;;2.15;;
9559;SDS011;4818;50.860;4.648;2023-02-01T03:51:54;13.02;;;1.73;;
9559;SDS011;4818;50.860;4.648;2023-02-01T03:54:21;18.65;;;2.03;;
9559;SDS011;4818;50.860;4.648;2023-02-01T03:56:47;11.43;;;1.63;;
9559;SDS011;4818;50.860;4.648;2023-02-01T03:59:14;18.15;;;2.00;;
9559;SDS011;4818;50.860;4.648;2023-02-01T04:01:41;11.90;;;2.78;;
9559;SDS011;4818;50.860;4.648;2023-02-01T04:04:07;12.65;;;1.58;;
9559;SDS011;4818;50.860;4.648;2023-02-01T04:06:34;17.35;;;1.42;;
9559;SDS011;4818;50.860;4.648;2023-02-01T04:09:00;23.08;;;3.85;;
9559;SDS011;4818;50.860;4.648;2023-02-01T04:11:27;19.08;;;2.28;;
9559;SDS011;4818;50.860;4.648;2023-02-01T04:13:54;18.85;;;2.10;;
9559;SDS011;4818;50.860;4.648;2023-02-01T04:16:20;18.17;;;1.75;;
9559;SDS011;4818;50.860;4.648;2023-02-01T04:18:46;15.13;;;1.95;;
9559;SDS011;4818;50.860;4.648;2023-02-01T04:21:12;11.68;;;1.55;;
9559;SDS011;4818;50.860;4.648;2023-02-01T04:23:39;19.40;;;2.03;;
9559;SDS011;4818;50.860;4.648;2023-02-01T04:26:05;15.15;;;1.23;;
9559;SDS011;4818;50.860;4.648;2023-02-01T04:28:31;18.80;;;1.92;;
9559;SDS011;4818;50.860;4.648;2023-02-01T04:30:58;29.90;;;1.95;;
9559;SDS011;4818;50.860;4.648;2023-02-01T04:33:24;16.10;;;1.40;;
9559;SDS011;4818;50.860;4.648;2023-02-01T04:35:51;16.67;;;2.17;;
9559;SDS011;4818;50.860;4.648;2023-02-01T04:38:17;20.30;;;1.75;;
9559;SDS011;4818;50.860;4.648;2023-02-01T04:40:43;14.45;;;1.73;;
9559;SDS011;4818;50.860;4.648;2023-02-01T04:43:12;19.52;;;2.10;;
9559;SDS011;4818;50.860;4.648;2023-02-01T04:45:38;15.98;;;2.97;;
9559;SDS011;4818;50.860;4.648;2023-02-01T04:48:04;19.45;;;1.52;;
9559;SDS011;4818;50.860;4.648;2023-02-01T04:50:31;19.40;;;2.55;;
9559;SDS011;4818;50.860;4.648;2023-02-01T04:52:57;22.55;;;1.95;;
9559;SDS011;4818;50.860;4.648;2023-02-01T04:55:23;16.10;;;1.90;;
9559;SDS011;4818;50.860;4.648;2023-02-01T04:57:49;15.30;;;2.28;;
9559;SDS011;4818;50.860;4.648;2023-02-01T05:00:16;13.70;;;1.42;;
9559;SDS011;4818;50.860;4.648;2023-02-01T05:02:42;25.38;;;2.58;;
9559;SDS011;4818;50.860;4.648;2023-02-01T05:05:08;18.05;;;2.13;;
9559;SDS011;4818;50.860;4.648;2023-02-01T05:07:34;17.90;;;1.95;;
9559;SDS011;4818;50.860;4.648;2023-02-01T05:10:01;19.17;;;2.97;;
9559;SDS011;4818;50.860;4.648;2023-02-01T05:12:27;20.65;;;2.60;;
9559;SDS011;4818;50.860;4.648;2023-02-01T05:15:11;14.95;;;1.73;;
9559;SDS011;4818;50.860;4.648;2023-02-01T05:17:38;13.82;;;1.27;;
9559;SDS011;4818;50.860;4.648;2023-02-01T05:20:06;20.58;;;2.58;;
9559;SDS011;4818;50.860;4.648;2023-02-01T05:22:32;19.27;;;2.22;;
9559;SDS011;4818;50.860;4.648;2023-02-01T05:24:58;20.48;;;2.13;;
9559;SDS011;4818;50.860;4.648;2023-02-01T05:27:24;24.08;;;3.25;;
9559;SDS011;4818;50.860;4.648;2023-02-01T05:29:50;18.92;;;2.05;;
9559;SDS011;4818;50.860;4.648;2023-02-01T05:32:17;21.20;;;2.30;;
9559;SDS011;4818;50.860;4.648;2023-02-01T05:34:43;14.68;;;1.25;;
9559;SDS011;4818;50.860;4.648;2023-02-01T05:37:09;13.05;;;1.85;;
9559;SDS011;4818;50.860;4.648;2023-02-01T05:39:35;19.30;;;2.05;;
9559;SDS011;4818;50.860;4.648;2023-02-01T05:42:01;17.90;;;2.05;;
9559;SDS011;4818;50.860;4.648;2023-02-01T05:44:28;20.73;;;3.13;;
9559;SDS011;4818;50.860;4.648;2023-02-01T05:46:54;18.58;;;2.00;;
9559;SDS011;4818;50.860;4.648;2023-02-01T05:49:20;17.63;;;1.63;;
9559;SDS011;4818;50.860;4.648;2023-02-01T05:51:46;17.02;;;1.85;;
9559;SDS011;4818;50.860;4.648;2023-02-01T05:54:12;14.55;;;2.10;;
9559;SDS011;4818;50.860;4.648;2023-02-01T05:56:39;13.88;;;1.90;;
9559;SDS011;4818;50.860;4.648;2023-02-01T05:59:05;15.25;;;2.33;;
9559;SDS011;4818;50.860;4.648;2023-02-01T06:01:32;22.27;;;1.90;;
9559;SDS011;4818;50.860;4.648;2023-02-01T06:03:58;19.20;;;2.45;;
9559;SDS011;4818;50.860;4.648;2023-02-01T06:06:24;12.77;;;1.67;;
9559;SDS011;4818;50.860;4.648;2023-02-01T06:08:50;17.83;;;1.85;;
9559;SDS011;4818;50.860;4.648;2023-02-01T06:11:16;21.70;;;2.60;;
9559;SDS011;4818;50.860;4.648;2023-02-01T06:13:43;24.25;;;2.33;;
9559;SDS011;4818;50.860;4.648;2023-02-01T06:16:09;23.58;;;2.67;;
9559;SDS011;4818;50.860;4.648;2023-02-01T06:18:35;21.83;;;1.98;;
9559;SDS011;4818;50.860;4.648;2023-02-01T06:21:02;24.25;;;1.83;;
9559;SDS011;4818;50.860;4.648;2023-02-01T06:23:29;23.00;;;2.83;;
9559;SDS011;4818;50.860;4.648;2023-02-01T06:26:00;11.98;;;1.15;;
9559;SDS011;4818;50.860;4.648;2023-02-01T06:28:27;21.27;;;2.63;;
9559;SDS011;4818;50.860;4.648;2023-02-01T06:30:53;18.88;;;2.10;;
9559;SDS011;4818;50.860;4.648;2023-02-01T06:33:20;20.05;;;3.08;;
9559;SDS011;4818;50.860;4.648;2023-02-01T06:35:46;21.70;;;2.72;;
9559;SDS011;4818;50.860;4.648;2023-02-01T06:38:13;18.08;;;2.47;;
9559;SDS011;4818;50.860;4.648;2023-02-01T06:40:40;20.90;;;1.98;;
9559;SDS011;4818;50.860;4.648;2023-02-01T06:43:07;18.05;;;2.13;;
9559;SDS011;4818;50.860;4.648;2023-02-01T06:45:33;19.75;;;2.30;;
9559;SDS011;4818;50.860;4.648;2023-02-01T06:48:00;19.35;;;2.58;;
9559;SDS011;4818;50.860;4.648;2023-02-01T06:50:27;19.65;;;2.22;;
9559;SDS011;4818;50.860;4.648;2023-02-01T06:52:53;19.38;;;1.80;;
9559;SDS011;4818;50.860;4.648;2023-02-01T06:55:19;20.10;;;2.15;;
9559;SDS011;4818;50.860;4.648;2023-02-01T06:57:46;15.70;;;1.27;;
9559;SDS011;4818;50.860;4.648;2023-02-01T07:00:12;18.15;;;3.20;;
9559;SDS011;4818;50.860;4.648;2023-02-01T07:02:39;10.95;;;1.70;;
9559;SDS011;4818;50.860;4.648;2023-02-01T07:05:05;18.50;;;2.00;;
9559;SDS011;4818;50.860;4.648;2023-02-01T07:07:31;21.00;;;2.38;;
9559;SDS011;4818;50.860;4.648;2023-02-01T07:09:57;17.80;;;2.63;;
9559;SDS011;4818;50.860;4.648;2023-02-01T07:12:23;21.20;;;2.10;;
9559;SDS011;4818;50.860;4.648;2023-02-01T07:14:49;24.30;;;2.45;;
9559;SDS011;4818;50.860;4.648;2023-02-01T07:17:16;22.35;;;1.77;;
9559;SDS011;4818;50.860;4.648;2023-02-01T07:19:42;16.05;;;1.65;;
9559;SDS011;4818;50.860;4.648;2023-02-01T07:22:08;18.25;;;2.13;;
9559;SDS011;4818;50.860;4.648;2023-02-01T07:24:34;22.23;;;2.08;;
9559;SDS011;4818;50.860;4.648;2023-02-01T07:27:00;15.85;;;2.15;;
9559;SDS011;4818;50.860;4.648;2023-02-01T07:29:26;19.58;;;2.05;;
9559;SDS011;4818;50.860;4.648;2023-02-01T07:31:53;22.63;;;2.60;;
9559;SDS011;4818;50.860;4.648;2023-02-01T07:34:19;20.45;;;2.90;;
9559;SDS011;4818;50.860;4.648;2023-02-01T07:36:45;22.02;;;2.28;;
9559;SDS011;4818;50.860;4.648;2023-02-01T07:39:11;14.25;;;1.77;;
9559;SDS011;4818;50.860;4.648;2023-02-01T07:41:38;17.15;;;2.25;;
9559;SDS011;4818;50.860;4.648;2023-02-01T07:44:04;19.45;;;2.70;;
9559;SDS011;4818;50.860;4.648;2023-02-01T07:46:30;26.17;;;2.20;;
9559;SDS011;4818;50.860;4.648;2023-02-01T07:48:56;21.40;;;1.40;;
9559;SDS011;4818;50.860;4.648;2023-02-01T07:51:23;14.82;;;2.63;;
9559;SDS011;4818;50.860;4.648;2023-02-01T07:53:49;16.52;;;1.95;;
9559;SDS011;4818;50.860;4.648;2023-02-01T07:56:19;17.33;;;1.65;;
9559;SDS011;4818;50.860;4.648;2023-02-01T07:58:49;25.52;;;3.15;;
9559;SDS011;4818;50.860;4.648;2023-02-01T08:01:19;13.45;;;1.75;;
9559;SDS011;4818;50.860;4.648;2023-02-01T08:03:48;19.77;;;2.47;;
9559;SDS011;4818;50.860;4.648;2023-02-01T08:06:15;21.77;;;2.17;;
9559;SDS011;4818;50.860;4.648;2023-02-01T08:08:41;18.70;;;2.60;;
9559;SDS011;4818;50.860;4.648;2023-02-01T08:11:10;16.23;;;2.47;;
9559;SDS011;4818;50.860;4.648;2023-02-01T08:13:36;18.40;;;2.85;;
9559;SDS011;4818;50.860;4.648;2023-02-01T08:16:04;25.55;;;2.30;;
9559;SDS011;4818;50.860;4.648;2023-02-01T08:18:30;24.23;;;2.65;;
9559;SDS011;4818;50.860;4.648;2023-02-01T08:21:01;13.13;;;1.90;;
9559;SDS011;4818;50.860;4.648;2023-02-01T08:23:28;21.65;;;2.78;;
9559;SDS011;4818;50.860;4.648;2023-02-01T08:28:24;17.80;;;1.65;;
9559;SDS011;4818;50.860;4.648;2023-02-01T08:30:50;27.33;;;2.85;;
9559;SDS011;4818;50.860;4.648;2023-02-01T08:33:17;23.27;;;4.22;;
9559;SDS011;4818;50.860;4.648;2023-02-01T08:35:43;22.38;;;2.30;;
9559;SDS011;4818;50.860;4.648;2023-02-01T08:38:09;16.63;;;2.15;;
9559;SDS011;4818;50.860;4.648;2023-02-01T08:40:38;23.77;;;2.67;;
9559;SDS011;4818;50.860;4.648;2023-02-01T08:43:06;20.67;;;2.40;;
9559;SDS011;4818;50.860;4.648;2023-02-01T08:45:33;13.60;;;2.10;;
9559;SDS011;4818;50.860;4.648;2023-02-01T08:47:59;20.92;;;2.72;;
9559;SDS011;4818;50.860;4.648;2023-02-01T08:50:25;13.07;;;2.30;;
9559;SDS011;4818;50.860;4.648;2023-02-01T08:52:52;20.60;;;1.83;;
9559;SDS011;4818;50.860;4.648;2023-02-01T08:55:18;25.95;;;2.33;;
9559;SDS011;4818;50.860;4.648;2023-02-01T08:57:45;20.38;;;3.03;;
9559;SDS011;4818;50.860;4.648;2023-02-01T09:00:12;18.00;;;2.45;;
9559;SDS011;4818;50.860;4.648;2023-02-01T09:02:39;14.63;;;2.22;;
9559;SDS011;4818;50.860;4.648;2023-02-01T09:05:06;15.32;;;1.65;;
9559;SDS011;4818;50.860;4.648;2023-02-01T09:07:32;15.18;;;1.75;;
9559;SDS011;4818;50.860;4.648;2023-02-01T09:09:59;15.68;;;1.98;;
9559;SDS011;4818;50.860;4.648;2023-02-01T09:12:29;18.67;;;2.20;;
9559;SDS011;4818;50.860;4.648;2023-02-01T09:14:56;19.00;;;3.58;;
9559;SDS011;4818;50.860;4.648;2023-02-01T09:17:27;13.43;;;1.83;;
9559;SDS011;4818;50.860;4.648;2023-02-01T09:19:53;11.75;;;2.03;;
9559;SDS011;4818;50.860;4.648;2023-02-01T09:22:19;15.85;;;1.83;;
9559;SDS011;4818;50.860;4.648;2023-02-01T09:24:45;13.43;;;1.50;;
9559;SDS011;4818;50.860;4.648;2023-02-01T09:27:12;11.00;;;2.50;;
9559;SDS011;4818;50.860;4.648;2023-02-01T09:29:38;22.02;;;2.33;;
9559;SDS011;4818;50.860;4.648;2023-02-01T09:32:04;18.65;;;1.98;;
9559;SDS011;4818;50.860;4.648;2023-02-01T09:34:32;15.57;;;2.17;;
9559;SDS011;4818;50.860;4.648;2023-02-01T09:36:58;13.25;;;1.63;;
9559;SDS011;4818;50.860;4.648;2023-02-01T09:39:25;14.43;;;2.58;;
9559;SDS011;4818;50.860;4.648;2023-02-01T09:41:54;15.13;;;2.13;;
9559;SDS011;4818;50.860;4.648;2023-02-01T09:44:30;21.77;;;2.30;;
9559;SDS011;4818;50.860;4.648;2023-02-01T09:46:59;10.20;;;1.63;;
9559;SDS011;4818;50.860;4.648;2023-02-01T09:49:32;13.60;;;2.08;;
9559;SDS011;4818;50.860;4.648;2023-02-01T09:52:01;18.77;;;2.28;;
9559;SDS011;4818;50.860;4.648;2023-02-01T09:54:29;17.08;;;2.53;;
9559;SDS011;4818;50.860;4.648;2023-02-01T09:59:38;10.70;;;2.13;;
9559;SDS011;4818;50.860;4.648;2023-02-01T10:02:10;18.20;;;3.05;;
9559;SDS011;4818;50.860;4.648;2023-02-01T10:04:37;15.73;;;1.88;;
9559;SDS011;4818;50.860;4.648;2023-02-01T10:08:04;13.60;;;1.83;;
9559;SDS011;4818;50.860;4.648;2023-02-01T10:10:04;11.88;;;1.58;;
9559;SDS011;4818;50.860;4.648;2023-02-01T10:17:51;9.88;;;1.65;;
9559;SDS011;4818;50.860;4.648;2023-02-01T10:22:57;11.30;;;1.83;;
9559;SDS011;4818;50.860;4.648;2023-02-01T10:25:27;14.38;;;1.75;;
9559;SDS011;4818;50.860;4.648;2023-02-01T10:27:54;7.57;;;1.75;;
9559;SDS011;4818;50.860;4.648;2023-02-01T10:30:22;12.45;;;2.13;;
9559;SDS011;4818;50.860;4.648;2023-02-01T10:32:54;11.07;;;1.98;;
9559;SDS011;4818;50.860;4.648;2023-02-01T10:35:28;11.13;;;1.15;;
9559;SDS011;4818;50.860;4.648;2023-02-01T10:37:58;9.18;;;1.55;;
9559;SDS011;4818;50.860;4.648;2023-02-01T10:40:25;7.03;;;1.35;;
9559;SDS011;4818;50.860;4.648;2023-02-01T10:42:53;11.50;;;1.40;;
9559;SDS011;4818;50.860;4.648;2023-02-01T10:45:20;12.30;;;1.80;;
9559;SDS011;4818;50.860;4.648;2023-02-01T10:47:48;10.23;;;1.83;;
9559;SDS011;4818;50.860;4.648;2023-02-01T10:50:17;9.70;;;1.45;;
9559;SDS011;4818;50.860;4.648;2023-02-01T10:52:46;13.38;;;2.25;;
9559;SDS011;4818;50.860;4.648;2023-02-01T10:55:34;10.95;;;2.05;;
9559;SDS011;4818;50.860;4.648;2023-02-01T10:58:02;12.55;;;1.88;;
9559;SDS011;4818;50.860;4.648;2023-02-01T11:00:44;13.80;;;1.75;;
9559;SDS011;4818;50.860;4.648;2023-02-01T11:03:32;15.23;;;1.63;;
9559;SDS011;4818;50.860;4.648;2023-02-01T11:05:58;14.45;;;1.35;;
9559;SDS011;4818;50.860;4.648;2023-02-01T11:08:25;13.07;;;1.35;;
9559;SDS011;4818;50.860;4.648;2023-02-01T11:10:59;10.90;;;1.30;;
9559;SDS011;4818;50.860;4.648;2023-02-01T11:13:33;12.32;;;1.92;;
9559;SDS011;4818;50.860;4.648;2023-02-01T11:16:03;17.67;;;2.40;;
9559;SDS011;4818;50.860;4.648;2023-02-01T11:18:31;8.98;;;1.92;;
9559;SDS011;4818;50.860;4.648;2023-02-01T11:20:58;14.20;;;1.80;;
9559;SDS011;4818;50.860;4.648;2023-02-01T11:23:26;13.32;;;1.50;;
9559;SDS011;4818;50.860;4.648;2023-02-01T11:25:55;9.07;;;1.23;;
9559;SDS011;4818;50.860;4.648;2023-02-01T11:28:25;12.52;;;1.45;;
9559;SDS011;4818;50.860;4.648;2023-02-01T11:30:53;12.80;;;1.50;;
9559;SDS011;4818;50.860;4.648;2023-02-01T11:33:22;13.82;;;1.17;;
9559;SDS011;4818;50.860;4.648;2023-02-01T11:35:50;12.70;;;1.20;;
9559;SDS011;4818;50.860;4.648;2023-02-01T11:38:22;14.80;;;2.22;;
9559;SDS011;4818;50.860;4.648;2023-02-01T11:40:51;18.73;;;2.20;;
9559;SDS011;4818;50.860;4.648;2023-02-01T11:43:22;13.95;;;2.58;;
9559;SDS011;4818;50.860;4.648;2023-02-01T11:48:21;16.98;;;1.38;;
9559;SDS011;4818;50.860;4.648;2023-02-01T12:13:42;10.68;;;0.73;;
9559;SDS011;4818;50.860;4.648;2023-02-01T12:26:50;9.43;;;1.27;;
9559;SDS011;4818;50.860;4.648;2023-02-01T12:37:26;11.98;;;1.15;;
9559;SDS011;4818;50.860;4.648;2023-02-01T12:45:16;7.53;;;0.55;;
9559;SDS011;4818;50.860;4.648;2023-02-01T12:47:49;8.02;;;0.60;;
9559;SDS011;4818;50.860;4.648;2023-02-01T12:50:27;6.72;;;1.20;;
9559;SDS011;4818;50.860;4.648;2023-02-01T12:53:07;6.60;;;1.08;;
9559;SDS011;4818;50.860;4.648;2023-02-01T12:55:45;8.65;;;0.90;;
9559;SDS011;4818;50.860;4.648;2023-02-01T12:58:23;8.00;;;0.80;;
9559;SDS011;4818;50.860;4.648;2023-02-01T13:00:57;7.22;;;0.52;;
9559;SDS011;4818;50.860;4.648;2023-02-01T13:11:13;7.05;;;0.50;;
9559;SDS011;4818;50.860;4.648;2023-02-01T13:16:32;12.60;;;1.13;;
9559;SDS011;4818;50.860;4.648;2023-02-01T13:19:02;5.32;;;0.57;;
9559;SDS011;4818;50.860;4.648;2023-02-01T13:21:34;8.43;;;1.15;;
9559;SDS011;4818;50.860;4.648;2023-02-01T13:24:01;12.27;;;0.82;;
9559;SDS011;4818;50.860;4.648;2023-02-01T13:26:27;5.55;;;0.50;;
9559;SDS011;4818;50.860;4.648;2023-02-01T13:36:54;8.40;;;0.55;;
9559;SDS011;4818;50.860;4.648;2023-02-01T13:42:13;8.85;;;0.85;;
9559;SDS011;4818;50.860;4.648;2023-02-01T13:44:43;6.13;;;0.85;;
9559;SDS011;4818;50.860;4.648;2023-02-01T13:47:12;9.55;;;0.60;;
9559;SDS011;4818;50.860;4.648;2023-02-01T13:49:41;10.82;;;0.77;;
9559;SDS011;4818;50.860;4.648;2023-02-01T13:52:17;4.38;;;0.40;;
9559;SDS011;4818;50.860;4.648;2023-02-01T13:54:47;3.72;;;0.60;;
9559;SDS011;4818;50.860;4.648;2023-02-01T13:57:35;11.18;;;0.98;;
9559;SDS011;4818;50.860;4.648;2023-02-01T14:02:48;5.22;;;0.70;;
9559;SDS011;4818;50.860;4.648;2023-02-01T14:21:46;10.00;;;0.95;;
9559;SDS011;4818;50.860;4.648;2023-02-01T14:32:00;8.90;;;1.00;;
9559;SDS011;4818;50.860;4.648;2023-02-01T14:36:57;8.93;;;0.88;;
9559;SDS011;4818;50.860;4.648;2023-02-01T14:44:43;12.82;;;1.00;;
9559;SDS011;4818;50.860;4.648;2023-02-01T14:52:32;9.07;;;0.70;;
9559;SDS011;4818;50.860;4.648;2023-02-01T14:55:01;10.48;;;1.20;;
9559;SDS011;4818;50.860;4.648;2023-02-01T14:57:28;12.23;;;1.15;;
9559;SDS011;4818;50.860;4.648;2023-02-01T14:59:59;10.02;;;0.88;;
9559;SDS011;4818;50.860;4.648;2023-02-01T15:02:26;6.40;;;0.47;;
9559;SDS011;4818;50.860;4.648;2023-02-01T15:04:55;5.00;;;0.57;;
9559;SDS011;4818;50.860;4.648;2023-02-01T15:07:23;14.82;;;1.23;;
9559;SDS011;4818;50.860;4.648;2023-02-01T15:09:50;11.27;;;1.23;;
9559;SDS011;4818;50.860;4.648;2023-02-01T15:12:18;15.52;;;1.10;;
9559;SDS011;4818;50.860;4.648;2023-02-01T15:17:34;15.63;;;1.15;;
9559;SDS011;4818;50.860;4.648;2023-02-01T15:20:11;11.48;;;1.42;;
9559;SDS011;4818;50.860;4.648;2023-02-01T15:22:37;8.98;;;1.40;;
9559;SDS011;4818;50.860;4.648;2023-02-01T15:25:03;15.13;;;1.88;;
9559;SDS011;4818;50.860;4.648;2023-02-01T15:27:31;11.60;;;0.90;;
9559;SDS011;4818;50.860;4.648;2023-02-01T15:30:05;9.60;;;1.10;;
9559;SDS011;4818;50.860;4.648;2023-02-01T15:32:35;12.23;;;1.23;;
9559;SDS011;4818;50.860;4.648;2023-02-01T15:35:03;7.43;;;1.08;;
9559;SDS011;4818;50.860;4.648;2023-02-01T15:37:30;10.75;;;0.82;;
9559;SDS011;4818;50.860;4.648;2023-02-01T15:40:18;8.13;;;1.02;;
9559;SDS011;4818;50.860;4.648;2023-02-01T15:42:49;10.00;;;1.10;;
9559;SDS011;4818;50.860;4.648;2023-02-01T15:45:21;6.75;;;0.63;;
9559;SDS011;4818;50.860;4.648;2023-02-01T15:47:48;14.15;;;1.13;;
9559;SDS011;4818;50.860;4.648;2023-02-01T15:50:16;7.90;;;1.38;;
9559;SDS011;4818;50.860;4.648;2023-02-01T15:52:42;13.63;;;1.10;;
9559;SDS011;4818;50.860;4.648;2023-02-01T15:55:17;11.32;;;1.42;;
9559;SDS011;4818;50.860;4.648;2023-02-01T15:57:44;9.40;;;1.85;;
9559;SDS011;4818;50.860;4.648;2023-02-01T16:02:59;9.82;;;1.35;;
9559;SDS011;4818;50.860;4.648;2023-02-01T16:05:35;11.80;;;0.93;;
9559;SDS011;4818;50.860;4.648;2023-02-01T16:08:06;7.90;;;0.68;;
9559;SDS011;4818;50.860;4.648;2023-02-01T16:10:45;9.55;;;1.85;;
9559;SDS011;4818;50.860;4.648;2023-02-01T16:13:12;15.00;;;1.27;;
9559;SDS011;4818;50.860;4.648;2023-02-01T16:15:38;13.15;;;0.93;;
9559;SDS011;4818;50.860;4.648;2023-02-01T16:18:05;7.85;;;0.75;;
9559;SDS011;4818;50.860;4.648;2023-02-01T16:20:33;11.25;;;1.15;;
9559;SDS011;4818;50.860;4.648;2023-02-01T16:23:00;17.05;;;1.20;;
9559;SDS011;4818;50.860;4.648;2023-02-01T16:25:26;13.63;;;1.20;;
9559;SDS011;4818;50.860;4.648;2023-02-01T16:27:53;11.93;;;1.48;;
9559;SDS011;4818;50.860;4.648;2023-02-01T16:30:19;15.65;;;1.60;;
9559;SDS011;4818;50.860;4.648;2023-02-01T16:32:52;13.90;;;1.80;;
9559;SDS011;4818;50.860;4.648;2023-02-01T16:35:21;13.02;;;1.33;;
9559;SDS011;4818;50.860;4.648;2023-02-01T16:37:48;14.98;;;1.33;;
9559;SDS011;4818;50.860;4.648;2023-02-01T16:40:15;9.80;;;1.15;;
9559;SDS011;4818;50.860;4.648;2023-02-01T16:42:41;12.63;;;1.67;;
9559;SDS011;4818;50.860;4.648;2023-02-01T16:45:07;21.88;;;1.85;;
9559;SDS011;4818;50.860;4.648;2023-02-01T16:47:34;13.73;;;1.25;;
9559;SDS011;4818;50.860;4.648;2023-02-01T16:50:02;19.20;;;1.70;;
9559;SDS011;4818;50.860;4.648;2023-02-01T16:52:28;17.05;;;1.60;;
9559;SDS011;4818;50.860;4.648;2023-02-01T16:54:54;13.48;;;1.40;;
9559;SDS011;4818;50.860;4.648;2023-02-01T16:57:20;11.93;;;1.20;;
9559;SDS011;4818;50.860;4.648;2023-02-01T16:59:48;21.20;;;2.55;;
9559;SDS011;4818;50.860;4.648;2023-02-01T17:02:15;17.27;;;1.23;;
9559;SDS011;4818;50.860;4.648;2023-02-01T17:04:41;10.38;;;1.35;;
9559;SDS011;4818;50.860;4.648;2023-02-01T17:07:14;20.17;;;2.50;;
9559;SDS011;4818;50.860;4.648;2023-02-01T17:09:41;14.00;;;1.13;;
9559;SDS011;4818;50.860;4.648;2023-02-01T17:12:26;14.70;;;1.92;;
9559;SDS011;4818;50.860;4.648;2023-02-01T17:14:55;11.27;;;1.83;;
9559;SDS011;4818;50.860;4.648;2023-02-01T17:17:21;14.50;;;2.53;;
9559;SDS011;4818;50.860;4.648;2023-02-01T17:19:48;17.30;;;1.60;;
9559;SDS011;4818;50.860;4.648;2023-02-01T17:22:21;11.10;;;2.22;;
9559;SDS011;4818;50.860;4.648;2023-02-01T17:24:49;19.63;;;1.50;;
9559;SDS011;4818;50.860;4.648;2023-02-01T17:27:16;26.17;;;1.63;;
9559;SDS011;4818;50.860;4.648;2023-02-01T17:29:42;11.13;;;1.48;;
9559;SDS011;4818;50.860;4.648;2023-02-01T17:32:21;12.05;;;1.35;;
9559;SDS011;4818;50.860;4.648;2023-02-01T17:34:47;9.63;;;1.52;;
9559;SDS011;4818;50.860;4.648;2023-02-01T17:37:28;10.02;;;1.55;;
9559;SDS011;4818;50.860;4.648;2023-02-01T17:39:54;17.42;;;1.25;;
9559;SDS011;4818;50.860;4.648;2023-02-01T17:42:20;10.00;;;1.50;;
9559;SDS011;4818;50.860;4.648;2023-02-01T17:44:47;6.63;;;0.98;;
9559;SDS011;4818;50.860;4.648;2023-02-01T17:47:13;13.70;;;1.58;;
9559;SDS011;4818;50.860;4.648;2023-02-01T17:49:39;13.70;;;2.35;;
9559;SDS011;4818;50.860;4.648;2023-02-01T17:52:05;15.75;;;1.55;;
9559;SDS011;4818;50.860;4.648;2023-02-01T17:54:31;12.20;;;1.65;;
9559;SDS011;4818;50.860;4.648;2023-02-01T17:56:58;22.25;;;2.53;;
9559;SDS011;4818;50.860;4.648;2023-02-01T17:59:27;15.82;;;2.53;;
9559;SDS011;4818;50.860;4.648;2023-02-01T18:01:53;20.52;;;1.77;;
9559;SDS011;4818;50.860;4.648;2023-02-01T18:04:24;15.65;;;2.42;;